Homestead, FL (33030)

2:54 PM EDT on August 28, 2016 (GMT -0400)
Westbury Estates | | Change Station

Elev 23 ft 25.49 °N, 80.50 °W | Updated 33 seconds ago

Partly Cloudy
Partly Cloudy
86.7 °F
Feels Like 95 °F
N
11.9
Wind Variable Wind from ESE
Gusts 17.4 mph

Today
High -- | Low -- °F
--% Chance of Precip.
Yesterday
High -- | Low -- °F
Precip. -- in
Pressure 29.89 in
Visibility 10.0 miles
Clouds Few 2600 ft
Heat Index 95 °F
Dew Point 74 °F
Humidity 65%
Rainfall 0.15 in
Snow Depth Not available.
7:01 AM 7:44 PM
Waning Crescent, 14% visible
SPECI KHST 281815Z AUTO 09016KT 10SM FEW026 31/24 A2989 RMK AO2 DZB00E11RAB11E15
Pressure 29.89 in
Visibility 10.0 miles
Clouds Few 2600 ft
Heat Index 95 °F
Dew Point 74 °F
Humidity 65%
Rainfall 0.15 in
Snow Depth Not available.
7:01 AM 7:44 PM
Waning Crescent, 14% visible
SPECI KHST 281815Z AUTO 09016KT 10SM FEW026 31/24 A2989 RMK AO2 DZB00E11RAB11E15

10-Day Weather Forecast

Almanac

Astronomy

Aug. 28, 2016 Rise Set
Actual Time
Civil Twilight
Nautical Twilight
Astronomical Twilight
Moon
Length of Visible Light
Length of Day
Tomorrow will be .
, % of the Moon is Illuminated

Today's Extremes

State Highs State Lows

Community

WunderPhotos

Upload Photos

1,935,647 photos uploaded!

WunderBlog® & News

Nearby

Air Quality

  Air Quality AQ Index Pollutant
Not available.

Snow Depth

Station Depth Elevation

Earthquake Activity

City Distance Mag. Time & Date
Minimum magnitude displayed is 2.5.

Coastal Water Temperatures

Place Temperature

Stations

Nearby Weather Stations

Station Location Temp. Windchill Dew Point Humidity Wind Precip. Elev Updated Type
                   

Watches & Warnings

There are currently no watches in effect.